CDT,Max TemperatureF,Mean TemperatureF,Min TemperatureF,Max Dew PointF,MeanDew PointF,Min DewpointF,Max Humidity, Mean Humidity, Min Humidity, Max Sea Level PressureIn, Mean Sea Level PressureIn, Min Sea Level PressureIn, Max VisibilityMiles, Mean VisibilityMiles, Min VisibilityMiles, Max Wind SpeedMPH, Mean Wind SpeedMPH, Max Gust SpeedMPH,PrecipitationIn, CloudCover, Events, WindDirDegrees
2013-3-1,73,52,32,30,22,14,82,35,13,30.30,30.21,30.09,10,10,10,16,4,24,0.00,0,,319
2013-3-2,68,54,41,30,27,24,55,38,21,30.43,30.32,30.25,10,10,10,17,5,25,0.00,0,,2
2013-3-3,77,56,36,43,34,28,76,46,19,30.27,30.11,29.95,10,10,10,18,5,25,0.00,0,,174
2013-3-4,87,65,43,54,45,39,90,55,18,29.93,29.81,29.70,10,10,10,12,5,17,0.00,0,,172
2013-3-5,69,60,48,53,27,11,97,37,15,30.35,30.17,29.77,10,10,9,23,10,36,0.00,0,,10
2013-3-6,62,50,39,26,18,13,42,29,16,30.44,30.32,30.23,10,10,10,15,6,21,0.00,0,,68
2013-3-7,73,56,39,55,47,29,85,69,47,30.22,30.15,30.07,10,10,10,17,6,24,0.00,4,,131
2013-3-8,70,66,61,65,61,55,96,86,75,30.10,30.04,29.97,10,9,5,21,11,29,0.00,8,Rain,128
2013-3-9,79,70,62,66,64,61,100,89,62,30.00,29.80,29.60,10,6,1,23,10,37,0.02,8,Rain,131
2013-3-10,69,62,51,64,42,30,97,52,23,30.13,29.88,29.66,10,9,2,17,9,25,0.05,3,Rain-Thunderstorm,338
2013-3-11,73,54,37,34,28,21,86,41,18,30.19,30.10,29.99,10,10,10,12,4,22,0.00,0,,332
2013-3-12,79,58,37,42,32,26,76,41,16,30.19,30.11,30.06,10,10,10,10,3,17,0.00,0,,166
2013-3-13,77,62,48,48,40,37,83,50,26,30.41,30.31,30.21,10,10,6,9,4,,0.00,0,,96
2013-3-14,79,60,43,54,47,37,93,61,29,30.38,30.30,30.20,10,9,6,15,5,22,0.00,1,,162
2013-3-15,82,64,46,56,50,40,100,66,25,30.23,30.12,29.98,10,10,7,16,6,26,0.00,0,,165
2013-3-16,84,68,52,62,56,51,100,73,31,29.98,29.86,29.71,10,9,5,16,7,25,0.00,2,,156
2013-3-17,87,76,64,65,61,56,94,74,35,29.80,29.71,29.60,10,10,8,12,6,,0.00,5,,146
2013-3-18,96,78,62,65,56,35,100,69,13,29.89,29.76,29.68,10,6,2,14,5,26,0.00,4,,67
2013-3-19,82,69,57,65,56,46,84,61,52,29.97,29.89,29.79,10,9,7,13,8,22,0.00,0,,80
2013-3-20,73,65,57,64,50,38,84,60,29,30.21,30.08,29.93,10,10,7,16,11,29,0.00,4,,59
2013-3-21,75,63,51,62,54,44,90,70,55,29.98,29.80,29.62,10,10,10,15,5,24,0.00,6,,170
2013-3-22,88,75,64,70,65,59,100,85,41,29.72,29.66,29.58,10,6,2,12,4,,0.00,6,,153
2013-3-23,82,70,57,63,57,52,83,68,47,29.75,29.66,29.55,10,8,4,10,7,,0.00,5,Rain,57
2013-3-24,70,58,48,60,31,17,93,41,17,30.15,29.99,29.68,10,9,5,23,11,39,0.00,2,,359
2013-3-25,62,52,41,24,17,8,47,28,13,30.38,30.27,30.16,10,10,10,18,9,25,0.00,0,,54
2013-3-26,66,54,41,29,20,17,44,29,16,30.50,30.37,30.28,10,10,10,12,7,,0.00,0,,87
2013-3-27,70,54,39,50,37,30,76,50,29,30.31,30.24,30.16,10,10,9,15,6,21,0.00,6,,146
2013-3-28,70,64,57,58,55,51,86,73,63,30.19,30.15,30.10,10,10,10,16,7,22,0.00,8,,141
2013-3-29,80,67,55,61,57,53,100,73,40,30.16,30.10,30.01,10,9,5,15,6,21,0.00,6,,149
2013-3-30,86,74,64,64,61,57,94,75,40,30.09,30.00,29.86,10,10,7,14,7,23,0.00,6,,155
2013-3-31,81,72,64,65,62,57,100,79,50,29.95,29.89,29.81,10,8,2,26,6,40,0.00,4,Rain-Thunderstorm,106